Saginaw Browne, MI

3:26 PM EDT on June 22, 2017 (GMT -0400)
Saginaw County-Browne

Weather History for KHYX - May, 2013

Change the Weather History Date:

Tuesday, May 28, 2013

  Actual Average (KMBS) Record (KMBS)
Temperature  
Mean Temperature 62 °F -  
Max Temperature 73 °F 67 °F 91 °F (2012)
Min Temperature 51 °F 47 °F 36 °F (2008)
Degree Days  
Heating Degree Days 3    
Growing Degree Days 12 (Base 50)    
Moisture  
Dew Point 60 °F    
Average Humidity 98    
Maximum Humidity 100    
Minimum Humidity 82    
Precipitation  
Precipitation 0.00 in - - ()
Sea Level Pressure  
Sea Level Pressure 29.88 in    
Wind  
Wind Speed 7 mph (SE)    
Max Wind Speed 14 mph    
Max Gust Speed -    
Visibility 6 miles    
Events Rain    
Averages and records for this station are not official NWS values.
T = Trace of Precipitation, MM = Missing Value Source: NWS Daily Summary

Daily Weather History Graph

Daily Weather History Graph

Search for Another Location

Airport or City:

Trip Planner

Search our weather history database for the weather conditions in past years. The results will help you decide how hot, cold, wet, or windy it might be!

Date:

Astronomy

May. 28, 2013 Rise Set
Actual Time 5:59 AM EDT 9:06 PM EDT
Civil Twilight 5:25 AM EDT 9:40 PM EDT
Nautical Twilight 4:41 AM EDT 10:25 PM EDT
Astronomical Twilight 3:48 AM EDT 11:18 PM EDT
Moon No Moon Rise 9:49 AM EDT (5/28)
Length of Visible Light 16h 15m
Length of Day
15h 06m
Waning Gibbous, 83% of the Moon is Illuminated
May 28
Waning Gibbous
May 31
Last Quarter
Jun 8
New
Jun 16
First Quarter
Jun 23
Full

Hourly Weather History & Observations

Time (EDT) Temp. Dew Point Humidity Pressure Visibility Wind Dir Wind Speed Gust Speed Precip Events Conditions
12:13 AM 53.6 °F 48.2 °F 82% 30.02 in 10.0 mi SE 5.8 mph - N/A   Overcast
12:33 AM 53.6 °F 50.0 °F 88% 30.02 in 7.0 mi SE 5.8 mph - N/A   Drizzle
12:53 AM 53.6 °F 50.0 °F 88% 30.02 in 10.0 mi SE 8.1 mph - N/A Rain Light Rain
1:11 AM 53.6 °F 51.8 °F 94% 30.01 in 5.0 mi ESE 9.2 mph - N/A Rain Light Rain
1:31 AM 51.8 °F 51.8 °F 100% 30.00 in 4.0 mi ESE 8.1 mph - N/A   Light Drizzle
1:53 AM 51.8 °F 51.8 °F 100% 29.99 in 4.0 mi East 6.9 mph - N/A   Overcast
2:13 AM 51.8 °F 51.8 °F 100% 29.99 in 4.0 mi ESE 6.9 mph - N/A   Overcast
2:33 AM 51.8 °F 51.8 °F 100% 29.99 in 5.0 mi East 3.5 mph - N/A   Overcast
2:53 AM 51.8 °F 51.8 °F 100% 29.98 in 4.0 mi East 5.8 mph - N/A   Overcast
3:14 AM 51.8 °F 51.8 °F 100% 29.97 in 3.0 mi ESE 6.9 mph - N/A   Overcast
3:34 AM 51.8 °F 51.8 °F 100% 29.96 in 5.0 mi ESE 5.8 mph - N/A   Overcast
3:54 AM 51.8 °F 51.8 °F 100% 29.96 in 7.0 mi ESE 8.1 mph - N/A   Overcast
4:14 AM 51.8 °F 51.8 °F 100% 29.95 in 10.0 mi ESE 5.8 mph - N/A   Overcast
4:34 AM 51.8 °F 51.8 °F 100% 29.95 in 10.0 mi Calm Calm - N/A   Overcast
4:54 AM 51.8 °F 51.8 °F 100% 29.94 in 4.0 mi East 3.5 mph - N/A   Overcast
5:14 AM 51.8 °F 51.8 °F 100% 29.94 in 4.0 mi ESE 5.8 mph - N/A   Overcast
5:34 AM 51.8 °F 51.8 °F 100% 29.95 in 7.0 mi ESE 3.5 mph - N/A   Overcast
5:55 AM 53.6 °F 53.6 °F 100% 29.94 in 7.0 mi ESE 4.6 mph - N/A   Overcast
6:15 AM 53.6 °F 53.6 °F 100% 29.94 in 5.0 mi ESE 4.6 mph - N/A   Overcast
6:35 AM 53.6 °F 53.6 °F 100% 29.93 in 5.0 mi ESE 4.6 mph - N/A   Overcast
6:55 AM 53.6 °F 53.6 °F 100% 29.94 in 4.0 mi SE 5.8 mph - N/A   Overcast
7:15 AM 53.6 °F 53.6 °F 100% 29.95 in 3.0 mi SE 4.6 mph - N/A   Overcast
7:35 AM 53.6 °F 53.6 °F 100% 29.93 in 3.0 mi ESE 6.9 mph - N/A   Overcast
7:55 AM 53.6 °F 53.6 °F 100% 29.94 in 3.0 mi SSE 8.1 mph - N/A   Overcast
8:15 AM 53.6 °F 53.6 °F 100% 29.94 in 2.0 mi SE 6.9 mph - N/A   Overcast
8:30 AM 53.6 °F 53.6 °F 100% 29.94 in 1.2 mi ESE 5.8 mph - N/A   Overcast
8:50 AM 53.6 °F 53.6 °F 100% 29.94 in 1.2 mi ESE 4.6 mph - N/A Rain Light Rain
9:10 AM 53.6 °F 53.6 °F 100% 29.92 in 1.5 mi ESE 6.9 mph - N/A   Overcast
9:31 AM 55.4 °F 55.4 °F 100% 29.91 in 2.0 mi ESE 8.1 mph - N/A Rain Light Rain
9:51 AM 55.4 °F 55.4 °F 100% 29.90 in 2.0 mi ESE 5.8 mph - N/A Rain Light Rain
10:11 AM 55.4 °F 55.4 °F 100% 29.90 in 2.5 mi ESE 4.6 mph - N/A   Overcast
10:31 AM 55.4 °F 55.4 °F 100% 29.90 in 3.0 mi ESE 4.6 mph - N/A   Overcast
10:51 AM 55.4 °F 55.4 °F 100% 29.91 in 3.0 mi SE 4.6 mph - N/A Rain Light Rain
11:11 AM 55.4 °F 55.4 °F 100% 29.90 in 3.0 mi ESE 4.6 mph - N/A Rain Light Rain
11:31 AM 57.2 °F 57.2 °F 100% 29.91 in 2.5 mi Calm Calm - N/A Rain Rain
11:51 AM 55.4 °F 55.4 °F 100% 29.89 in 0.8 mi East 6.9 mph - N/A Rain Heavy Rain
12:11 PM 57.2 °F 57.2 °F 100% 29.91 in 1.5 mi NNE 3.5 mph - N/A Rain Rain
12:31 PM 57.2 °F 57.2 °F 100% 29.87 in 2.0 mi East 8.1 mph - N/A Rain Light Rain
12:51 PM 59.0 °F 59.0 °F 100% 29.86 in 4.0 mi SE 9.2 mph - N/A Rain Rain
1:12 PM 59.0 °F 59.0 °F 100% 29.85 in 5.0 mi SE 11.5 mph - N/A   Overcast
1:32 PM 59.0 °F 59.0 °F 100% 29.90 in 2.0 mi SSW 11.5 mph - N/A   Overcast
1:52 PM 59.0 °F 59.0 °F 100% 29.85 in 3.0 mi SE 3.5 mph - N/A Rain Rain
2:12 PM 60.8 °F 60.8 °F 100% 29.87 in 5.0 mi SSE 8.1 mph - N/A Rain Light Rain
2:32 PM 60.8 °F 60.8 °F 100% 29.85 in 5.0 mi SSE 8.1 mph - N/A Rain Light Rain
2:52 PM 64.4 °F 64.4 °F 100% 29.86 in 7.0 mi SSE 11.5 mph - N/A   Mostly Cloudy
3:12 PM 68.0 °F 68.0 °F 100% 29.84 in 10.0 mi SSE 13.8 mph - N/A   Mostly Cloudy
3:32 PM 68.0 °F 68.0 °F 100% 29.84 in 10.0 mi SSE 11.5 mph - N/A   Mostly Cloudy
3:53 PM 68.0 °F 68.0 °F 100% 29.84 in 10.0 mi South 10.4 mph - N/A   Overcast
4:13 PM 68.0 °F 66.2 °F 94% 29.84 in 10.0 mi South 11.5 mph - N/A   Overcast
4:33 PM 69.8 °F 68.0 °F 94% 29.83 in 10.0 mi South 10.4 mph - N/A Rain Light Rain
4:53 PM 71.6 °F 68.0 °F 88% 29.81 in 10.0 mi South 12.7 mph - N/A   Scattered Clouds
5:13 PM 71.6 °F 68.0 °F 88% 29.81 in 10.0 mi SSE 12.7 mph - N/A   Clear
5:33 PM 73.4 °F 69.8 °F 88% 29.80 in 10.0 mi South 10.4 mph - N/A   Scattered Clouds
5:53 PM 73.4 °F 69.8 °F 88% 29.81 in 10.0 mi SSW 11.5 mph - N/A   Clear
6:13 PM 73.4 °F 69.8 °F 88% 29.81 in 10.0 mi South 9.2 mph - N/A   Scattered Clouds
6:33 PM 73.4 °F 69.8 °F 88% 29.80 in 10.0 mi South 9.2 mph - N/A   Mostly Cloudy
6:53 PM 71.6 °F 69.8 °F 94% 29.79 in 10.0 mi South 8.1 mph - N/A   Overcast
7:13 PM 71.6 °F 69.8 °F 94% 29.80 in 10.0 mi South 6.9 mph - N/A   Overcast
7:33 PM 71.6 °F 69.8 °F 94% 29.80 in 7.0 mi South 3.5 mph - N/A Rain Light Rain
7:54 PM 71.6 °F 69.8 °F 94% 29.79 in 7.0 mi SSE 5.8 mph - N/A   Overcast
8:14 PM 71.6 °F 69.8 °F 94% 29.79 in 7.0 mi SSE 5.8 mph - N/A   Overcast
8:33 PM 71.6 °F 69.8 °F 94% 29.79 in 5.0 mi South 5.8 mph - N/A   Overcast
8:54 PM 71.6 °F 69.8 °F 94% 29.79 in 7.0 mi South 6.9 mph - N/A   Overcast
9:14 PM 69.8 °F 69.8 °F 100% 29.79 in 7.0 mi SSW 5.8 mph - N/A Rain Rain
9:34 PM 69.8 °F 69.8 °F 100% 29.79 in 1.8 mi SSW 8.1 mph - N/A Rain Heavy Rain
9:54 PM 69.8 °F 69.8 °F 100% 29.79 in 5.0 mi South 8.1 mph - N/A Rain Light Rain
10:14 PM 69.8 °F 69.8 °F 100% 29.80 in 7.0 mi South 3.5 mph - N/A Rain Light Rain
10:34 PM 69.8 °F 69.8 °F 100% 29.79 in 10.0 mi SSW 4.6 mph - N/A   Overcast
10:54 PM 69.8 °F 69.8 °F 100% 29.79 in 7.0 mi South 3.5 mph - N/A Rain Light Rain
11:14 PM 68.0 °F 68.0 °F 100% 29.79 in 4.0 mi SSE 4.6 mph - N/A Rain Light Rain
11:35 PM 68.0 °F 68.0 °F 100% 29.79 in 2.5 mi SSE 3.5 mph - N/A   Overcast
11:55 PM 68.0 °F 68.0 °F 100% 29.79 in 3.0 mi Calm Calm - N/A   Overcast